Time;durP1;ratioP1;P1;durP2;ratioP2;P2;SDS_P1;SDS_P2;PMS_P1;PMS_P2;Temp;Humidity;BMP_temperature;BMP_pressure;BME280_temperature;BME280_humidity;BME280_pressure;Samples;Min_cycle;Max_cycle;Signal;HPM_P1;HPM_P2
2023/09/08 00:02:13;;;;;;;7.50;5.88;;;;;;;16.20;78.26;102069.91;4902148;28;20126;-73
2023/09/08 00:04:38;;;;;;;6.72;5.63;;;;;;;16.18;77.92;102073.94;4925866;28;20030;-73
2023/09/08 00:07:04;;;;;;;;;;;;;;;16.12;78.31;102070.44;4900016;28;20524;-72
2023/09/08 00:09:30;;;;;;;9.02;5.93;;;;;;;16.07;78.21;102065.88;4905641;28;19962;-72
2023/09/08 00:11:56;;;;;;;9.55;6.00;;;;;;;16.05;78.44;102070.75;4867363;28;20056;-75
2023/09/08 00:14:22;;;;;;;;;;;;;;;16.02;79.75;102071.28;4896878;28;20044;-72
2023/09/08 00:16:48;;;;;;;7.85;5.10;;;;;;;15.95;78.50;102064.56;4912048;28;20089;-72
2023/09/08 00:19:13;;;;;;;7.38;5.25;;;;;;;15.94;78.85;102066.44;4911633;28;20036;-73
2023/09/08 00:21:43;;;;;;;8.15;5.57;;;;;;;15.93;78.77;102066.72;4896098;28;20055;-74
2023/09/08 00:24:11;;;;;;;6.78;5.72;;;;;;;15.88;79.12;102064.84;4903145;28;20040;-73
2023/09/08 00:26:36;;;;;;;8.07;6.15;;;;;;;15.84;78.66;102067.25;4906520;28;20049;-72
2023/09/08 00:29:02;;;;;;;7.63;5.47;;;;;;;15.84;78.94;102053.75;4920536;28;20063;-72
2023/09/08 00:31:28;;;;;;;;;;;;;;;15.88;78.06;102064.03;4921973;28;20036;-74
2023/09/08 00:33:54;;;;;;;6.85;5.65;;;;;;;15.89;78.12;102061.03;4895416;28;19923;-72
2023/09/08 00:36:19;;;;;;;;;;;;;;;15.93;77.78;102051.31;4896245;28;20037;-73
2023/09/08 00:38:46;;;;;;;7.45;4.70;;;;;;;15.93;77.29;102061.31;4899950;28;19919;-73
2023/09/08 00:41:12;;;;;;;6.35;5.22;;;;;;;15.98;76.85;102051.28;4899705;28;20050;-73
2023/09/08 00:43:39;;;;;;;8.55;5.60;;;;;;;16.02;76.76;102055.06;4896710;28;20048;-72
2023/09/08 00:46:05;;;;;;;;;;;;;;;16.05;76.99;102053.69;4907377;28;20110;-73
2023/09/08 00:48:32;;;;;;;6.32;5.07;;;;;;;16.06;76.71;102048.03;4900059;28;19920;-73
2023/09/08 00:51:02;;;;;;;10.82;5.65;;;;;;;16.09;77.02;102033.97;4898162;28;20135;-73
2023/09/08 00:53:30;;;;;;;7.10;4.63;;;;;;;16.13;76.68;102034.25;4890842;28;20420;-73
2023/09/08 00:55:56;;;;;;;12.75;5.10;;;;;;;16.16;76.77;102032.88;4914790;28;20044;-72
2023/09/08 00:58:22;;;;;;;8.23;5.53;;;;;;;16.19;76.74;102026.91;4908758;28;20127;-73
2023/09/08 01:00:48;;;;;;;;;;;;;;;16.24;77.13;102027.69;4894323;28;20160;-73
2023/09/08 01:03:14;;;;;;;6.40;4.82;;;;;;;16.26;76.47;102027.44;4902956;28;19919;-73
2023/09/08 01:05:41;;;;;;;8.30;6.20;;;;;;;16.30;76.60;102028.50;4911650;28;20115;-73
2023/09/08 01:08:09;;;;;;;5.78;4.78;;;;;;;16.37;76.91;102029.00;4925426;22;20123;-76
2023/09/08 01:10:36;;;;;;;6.50;4.40;;;;;;;16.40;76.55;102024.97;4882051;28;20505;-75
2023/09/08 01:13:03;;;;;;;6.78;5.10;;;;;;;16.46;76.29;102027.34;4939702;28;20042;-75
2023/09/08 01:15:28;;;;;;;8.60;4.85;;;;;;;16.48;75.89;102027.88;4909809;28;20043;-75
2023/09/08 01:17:54;;;;;;;;;;;;;;;16.48;76.25;102025.19;4904845;28;20521;-75
2023/09/08 01:20:27;;;;;;;6.45;4.47;;;;;;;16.48;75.51;102016.25;4914484;28;20304;-78
2023/09/08 01:23:21;;;;;;;4.97;4.18;;;;;;;16.52;75.25;102023.50;4916062;28;20056;-76
2023/09/08 01:26:04;;;;;;;6.45;4.95;;;;;;;16.56;75.30;102021.06;4899546;28;20036;-77
2023/09/08 01:28:32;;;;;;;7.13;5.55;;;;;;;16.55;75.23;102019.47;4905867;28;20066;-77
2023/09/08 01:30:58;;;;;;;8.27;4.80;;;;;;;16.54;75.17;102015.97;4920040;28;20042;-76
2023/09/08 01:33:24;;;;;;;6.70;5.03;;;;;;;16.52;75.04;102009.19;4914776;28;20611;-77
2023/09/08 01:35:51;;;;;;;6.82;6.07;;;;;;;16.54;75.17;102010.53;4923587;28;20082;-78
2023/09/08 01:38:17;;;;;;;7.47;5.20;;;;;;;16.63;74.41;102011.56;4920562;28;20551;-77
2023/09/08 01:40:43;;;;;;;;;;;;;;;16.62;74.96;102009.16;4900007;28;20040;-79
2023/09/08 01:43:08;;;;;;;6.78;5.20;;;;;;;16.56;75.23;102008.38;4989701;28;20009;-77
2023/09/08 01:45:34;;;;;;;;;;;;;;;16.56;75.29;102008.38;4901041;28;20039;-77
2023/09/08 01:47:59;;;;;;;6.35;5.55;;;;;;;16.54;75.14;102007.03;4922006;28;20041;-76
2023/09/08 01:50:25;;;;;;;;;;;;;;;16.50;75.26;102003.25;4918192;28;20525;-78
2023/09/08 01:52:51;;;;;;;6.65;4.75;;;;;;;16.47;75.53;102004.63;4909967;28;19934;-76
2023/09/08 01:55:17;;;;;;;8.13;5.50;;;;;;;16.46;75.56;101994.91;4900615;29;20490;-75
2023/09/08 01:57:44;;;;;;;;;;;;;;;16.42;76.25;101996.53;4899707;28;20064;-78
2023/09/08 02:00:11;;;;;;;7.70;5.38;;;;;;;16.36;76.21;102003.88;4970682;28;20426;-76
2023/09/08 02:02:40;;;;;;;8.73;5.50;;;;;;;16.34;75.89;102010.66;4912794;28;20101;-77
2023/09/08 02:05:06;;;;;;;6.97;4.75;;;;;;;16.30;75.68;101999.56;4919190;28;20032;-78
2023/09/08 02:07:32;;;;;;;5.95;5.10;;;;;;;16.25;76.48;102002.28;4915060;29;20036;-77
2023/09/08 02:09:58;;;;;;;5.78;4.90;;;;;;;16.19;76.24;101992.59;4906827;28;20059;-77
2023/09/08 02:12:23;;;;;;;;;;;;;;;16.14;76.92;101994.50;4916869;28;20047;-79
2023/09/08 02:14:49;;;;;;;10.10;5.18;;;;;;;16.05;76.29;102000.50;4903183;28;20388;-77
2023/09/08 02:17:14;;;;;;;5.53;4.60;;;;;;;16.00;76.51;102002.41;4889632;28;20135;-78
2023/09/08 02:19:40;;;;;;;9.63;6.03;;;;;;;15.96;76.42;102006.72;4906756;28;20063;-80
2023/09/08 02:22:06;;;;;;;5.90;5.18;;;;;;;15.92;76.15;102001.06;4906761;28;20046;-78
2023/09/08 02:24:31;;;;;;;5.38;4.47;;;;;;;15.88;76.92;102002.69;4904538;28;20623;-77
2023/09/08 02:26:57;;;;;;;7.45;5.00;;;;;;;15.83;77.56;102002.69;4904522;28;20169;-77
2023/09/08 02:29:23;;;;;;;8.52;4.93;;;;;;;15.77;78.27;102003.78;4925394;28;20109;-77
2023/09/08 02:31:49;;;;;;;;;;;;;;;15.71;79.80;101999.47;4926721;28;20513;-78
2023/09/08 02:34:15;;;;;;;6.47;5.22;;;;;;;15.62;79.81;102006.53;4906835;28;20037;-76
2023/09/08 02:36:40;;;;;;;;;;;;;;;15.51;81.44;101998.44;4921757;28;20075;-77
2023/09/08 02:39:07;;;;;;;8.18;5.22;;;;;;;15.42;80.70;102002.75;4905758;28;20602;-77
2023/09/08 02:41:33;;;;;;;9.02;5.72;;;;;;;15.39;80.48;101997.09;4919880;28;20054;-77
2023/09/08 02:44:00;;;;;;;7.15;5.38;;;;;;;15.33;79.87;101998.97;4906574;28;20044;-76
2023/09/08 02:46:25;;;;;;;6.88;4.97;;;;;;;15.26;80.52;102001.13;4903609;28;20083;-77
2023/09/08 02:48:52;;;;;;;8.82;6.45;;;;;;;15.19;79.96;101998.72;4921778;28;20039;-78
2023/09/08 02:51:18;;;;;;;7.78;5.55;;;;;;;15.15;80.79;102002.22;4918467;28;20051;-78
2023/09/08 02:53:43;;;;;;;;;;;;;;;15.10;81.50;101999.50;4925480;28;20035;-77
2023/09/08 02:56:09;;;;;;;8.32;6.18;;;;;;;15.00;81.24;102003.81;4935957;28;19973;-78
2023/09/08 02:58:35;;;;;;;7.25;6.18;;;;;;;14.95;81.73;101998.41;4911171;28;20054;-79
2023/09/08 03:01:14;;;;;;;;;;;;;;;14.89;82.54;102007.56;4921274;28;20050;-79
2023/09/08 03:03:41;;;;;;;6.80;5.20;;;;;;;14.79;81.83;102004.88;4925486;28;19918;-77
2023/09/08 03:06:10;;;;;;;10.15;5.28;;;;;;;14.73;81.98;102000.53;4904950;28;20077;-77
2023/09/08 03:08:39;;;;;;;8.73;6.30;;;;;;;14.67;83.17;102001.59;4896093;28;20036;-78
2023/09/08 03:11:07;;;;;;;;;;;;;;;14.61;83.95;102002.66;4890425;28;20044;-78
2023/09/08 03:13:35;;;;;;;10.65;5.38;;;;;;;14.52;84.05;102005.06;4905869;28;19942;-77
2023/09/08 03:16:06;;;;;;;9.02;6.03;;;;;;;14.47;84.12;102000.47;4914301;28;20087;-77
2023/09/08 03:18:33;;;;;;;9.13;6.22;;;;;;;14.43;84.33;101993.97;4902915;28;20114;-78
2023/09/08 03:21:00;;;;;;;7.43;5.38;;;;;;;14.38;84.30;101991.25;4906823;28;20078;-78
2023/09/08 03:23:26;;;;;;;8.57;6.25;;;;;;;14.37;84.42;101989.66;4922377;28;20563;-78
2023/09/08 03:25:52;;;;;;;;;;;;;;;14.35;85.18;101989.06;4887672;28;20035;-78
2023/09/08 03:28:18;;;;;;;8.10;5.70;;;;;;;14.31;84.80;101998.78;4904898;28;19919;-77
2023/09/08 03:30:43;;;;;;;11.15;6.82;;;;;;;14.27;85.37;101981.50;4916695;28;20036;-78
2023/09/08 03:33:09;;;;;;;;;;;;;;;14.28;85.92;101982.31;4922179;28;20021;-78
2023/09/08 03:35:35;;;;;;;9.25;5.53;;;;;;;14.27;85.13;101976.13;4923140;28;19915;-79
2023/09/08 03:38:01;;;;;;;;;;;;;;;14.29;85.50;101978.53;4920404;28;20394;-77
2023/09/08 03:40:27;;;;;;;7.53;5.75;;;;;;;14.26;85.19;101979.09;4934632;28;20010;-79
2023/09/08 03:42:53;;;;;;;;;;;;;;;14.26;85.11;101979.88;4901317;28;20122;-78
2023/09/08 03:45:18;;;;;;;6.72;5.38;;;;;;;14.23;84.80;101980.44;4921455;28;20352;-78
2023/09/08 03:47:44;;;;;;;10.68;6.60;;;;;;;14.23;85.05;101988.50;4918814;28;20636;-77
2023/09/08 03:50:10;;;;;;;;;;;;;;;14.24;85.40;101976.66;4908555;28;20568;-76
2023/09/08 03:52:36;;;;;;;8.70;6.88;;;;;;;14.22;85.18;101978.78;4908310;28;19919;-79
2023/09/08 03:55:01;;;;;;;;;;;;;;;14.24;85.32;101982.03;4889032;28;20560;-79
2023/09/08 03:57:27;;;;;;;9.27;5.90;;;;;;;14.21;85.19;101971.78;4946956;28;19925;-77
2023/09/08 03:59:52;;;;;;;;;;;;;;;14.22;85.37;101976.09;4900479;28;20044;-80
2023/09/08 04:02:18;;;;;;;7.32;6.18;;;;;;;14.19;85.39;101974.75;4934168;28;20395;-77
2023/09/08 04:04:44;;;;;;;;;;;;;;;14.21;85.56;101969.09;4912266;28;20490;-78
2023/09/08 04:07:09;;;;;;;7.18;5.93;;;;;;;14.17;84.50;101965.31;5002737;28;20005;-77
2023/09/08 04:09:35;;;;;;;;;;;;;;;14.17;85.43;101970.72;4901923;28;20048;-79
2023/09/08 04:12:01;;;;;;;7.68;6.57;;;;;;;14.13;84.90;101969.59;4908142;28;19919;-76
2023/09/08 04:14:30;;;;;;;7.95;6.03;;;;;;;14.11;84.84;101971.75;4898257;28;20517;-79
2023/09/08 04:16:56;;;;;;;7.40;6.25;;;;;;;14.09;84.69;101963.94;4926177;28;20509;-78
2023/09/08 04:19:21;;;;;;;10.70;7.13;;;;;;;14.07;84.89;101971.47;4913244;28;20138;-78
2023/09/08 04:21:47;;;;;;;;;;;;;;;14.08;85.38;101969.56;4903772;28;20036;-78
2023/09/08 04:24:12;;;;;;;10.20;6.82;;;;;;;14.03;85.47;101966.88;4921010;28;19919;-76
2023/09/08 04:26:38;;;;;;;8.55;6.63;;;;;;;14.03;85.56;101959.59;4922284;28;20497;-79
2023/09/08 04:29:04;;;;;;;;;;;;;;;14.04;85.55;101963.09;4917842;28;20052;-80
2023/09/08 04:31:30;;;;;;;9.15;6.38;;;;;;;13.99;85.55;101965.78;4917567;28;19958;-77
2023/09/08 04:33:57;;;;;;;11.25;7.00;;;;;;;13.96;85.94;101959.03;4920414;28;20544;-79
2023/09/08 04:36:23;;;;;;;;;;;;;;;13.97;85.77;101960.66;4907586;28;20063;-78
2023/09/08 04:38:48;;;;;;;7.50;6.53;;;;;;;13.96;85.92;101963.63;4943692;28;19918;-79
2023/09/08 04:41:14;;;;;;;;;;;;;;;13.97;86.22;101960.66;4930424;28;20432;-77
2023/09/08 04:43:39;;;;;;;7.95;5.80;;;;;;;13.95;86.08;101960.09;4928668;28;19921;-79
2023/09/08 04:46:05;;;;;;;8.82;6.45;;;;;;;13.95;85.97;101952.00;4925485;28;20035;-77
2023/09/08 04:48:31;;;;;;;;;;;;;;;13.96;86.70;101958.22;4899324;28;20037;-77
2023/09/08 04:50:57;;;;;;;9.45;7.75;;;;;;;13.91;86.35;101951.72;4913053;28;19919;-77
2023/09/08 04:53:23;;;;;;;9.18;7.13;;;;;;;13.93;86.46;101959.53;4926893;28;20031;-78
2023/09/08 04:55:49;;;;;;;9.88;6.43;;;;;;;13.91;86.14;101949.03;4907159;28;20512;-76
2023/09/08 04:58:15;;;;;;;11.45;8.23;;;;;;;13.92;86.62;101953.34;4907124;28;20035;-75
2023/09/08 05:00:41;;;;;;;;;;;;;;;13.93;86.46;101943.38;4931423;28;20492;-77
2023/09/08 05:03:07;;;;;;;7.45;6.70;;;;;;;13.91;86.43;101949.03;4983483;28;19930;-76
2023/09/08 05:05:33;;;;;;;;;;;;;;;13.93;86.70;101938.81;4900565;28;20035;-78
2023/09/08 05:07:58;;;;;;;11.20;8.50;;;;;;;13.94;87.05;101951.19;4979968;28;20691;-76
2023/09/08 05:10:25;;;;;;;;;;;;;;;14.00;87.26;101943.16;4892199;28;20047;-77
2023/09/08 05:12:51;;;;;;;8.20;6.80;;;;;;;14.03;87.85;101954.22;4933588;28;19923;-77
2023/09/08 05:15:20;;;;;;;12.68;7.45;;;;;;;14.05;87.72;101952.06;4908285;28;20515;-77
2023/09/08 05:17:48;;;;;;;9.75;7.13;;;;;;;14.09;87.31;101955.03;4933273;28;20040;-78
2023/09/08 05:20:16;;;;;;;14.60;8.02;;;;;;;14.12;87.62;101943.75;4922950;28;20498;-77
2023/09/08 05:22:41;;;;;;;9.57;8.45;;;;;;;14.16;87.06;101942.16;4924521;28;20044;-80
2023/09/08 05:25:07;;;;;;;10.75;8.00;;;;;;;14.19;87.48;101941.59;4920600;28;20057;-77
2023/09/08 05:27:34;;;;;;;9.20;8.20;;;;;;;14.27;87.39;101946.47;4922634;28;20062;-79
2023/09/08 05:30:00;;;;;;;15.40;9.27;;;;;;;14.32;86.90;101937.59;4907727;28;20055;-77
2023/09/08 05:32:26;;;;;;;9.45;7.65;;;;;;;14.40;86.52;101945.97;4925648;28;20040;-79
2023/09/08 05:34:53;;;;;;;10.55;8.20;;;;;;;14.45;86.84;101935.22;4909031;28;20040;-78
2023/09/08 05:37:18;;;;;;;10.55;7.78;;;;;;;14.49;86.59;101938.22;4911048;28;20043;-76
2023/09/08 05:39:44;;;;;;;;;;;;;;;14.54;86.75;101948.19;4907440;28;20044;-79
2023/09/08 05:42:10;;;;;;;10.20;7.38;;;;;;;14.57;85.93;101942.28;4920267;28;20008;-79
2023/09/08 05:44:35;;;;;;;;;;;;;;;14.65;86.16;101933.66;4918333;28;20511;-79
2023/09/08 05:47:02;;;;;;;12.85;9.82;;;;;;;14.68;86.22;101938.50;4930648;28;20005;-78
2023/09/08 05:49:28;;;;;;;17.17;13.05;;;;;;;14.82;85.51;101949.59;4908745;28;20110;-77
2023/09/08 05:51:54;;;;;;;17.40;12.60;;;;;;;14.88;85.07;101941.22;4910265;28;20901;-79
2023/09/08 05:54:20;;;;;;;18.17;13.23;;;;;;;15.00;84.93;101940.97;4901547;28;20040;-78
2023/09/08 05:56:46;;;;;;;;;;;;;;;15.15;84.39;101942.84;4908726;28;20031;-79
2023/09/08 05:59:12;;;;;;;22.33;15.32;;;;;;;15.27;83.58;101946.06;4914852;28;19919;-79
2023/09/08 06:01:39;;;;;;;22.42;15.40;;;;;;;15.36;83.75;101938.22;4928023;28;20031;-77
2023/09/08 06:04:07;;;;;;;21.25;14.02;;;;;;;15.50;83.88;101939.28;4904860;28;20051;-77
2023/09/08 06:06:33;;;;;;;;;;;;;;;15.61;84.26;101940.09;4878710;28;20055;-78
2023/09/08 06:08:59;;;;;;;19.52;13.90;;;;;;;15.68;84.31;101935.22;4905091;28;19994;-76
2023/09/08 06:11:26;;;;;;;17.15;13.43;;;;;;;15.77;83.74;101942.47;4911498;28;20094;-78
2023/09/08 06:13:55;;;;;;;;;;;;;;;15.95;82.87;101942.97;4892407;28;20439;-77
2023/09/08 06:16:22;;;;;;;21.98;12.82;;;;;;;16.13;81.76;101930.75;4893850;28;19930;-77
2023/09/08 06:18:47;;;;;;;;;;;;;;;16.28;81.55;101936.88;4915179;28;20036;-79
2023/09/08 06:21:17;;;;;;;20.50;13.75;;;;;;;16.38;80.76;101933.28;4910388;28;19919;-75
2023/09/08 06:23:43;;;;;;;20.25;13.07;;;;;;;16.52;80.32;101934.28;4918858;28;20032;-76
2023/09/08 06:26:09;;;;;;;21.05;12.25;;;;;;;16.62;80.50;101938.84;4922343;28;20089;-77
2023/09/08 06:28:37;;;;;;;19.92;12.38;;;;;;;16.73;79.06;101937.72;4909622;28;20054;-76
2023/09/08 06:31:03;;;;;;;;;;;;;;;16.86;79.74;101939.75;4906994;28;20052;-78
2023/09/08 06:33:30;;;;;;;13.98;10.02;;;;;;;16.95;78.86;101929.16;4892962;29;19915;-76
2023/09/08 06:35:57;;;;;;;17.63;9.68;;;;;;;17.06;78.36;101938.78;4928696;28;20119;-78
2023/09/08 06:38:23;;;;;;;13.80;9.82;;;;;;;17.16;77.38;101935.19;4901134;28;20036;-76
2023/09/08 06:40:52;;;;;;;12.48;10.07;;;;;;;17.28;77.50;101934.81;4913784;28;20073;-78
2023/09/08 06:43:18;;;;;;;13.73;9.57;;;;;;;17.33;77.78;101942.88;4927851;28;20090;-78
2023/09/08 06:45:50;;;;;;;12.68;8.70;;;;;;;17.39;77.98;101941.72;4922198;28;20090;-78
2023/09/08 06:48:16;;;;;;;13.20;8.63;;;;;;;17.48;77.37;101940.03;4932094;28;20472;-77
2023/09/08 06:50:42;;;;;;;12.85;9.05;;;;;;;17.56;77.57;101950.22;4924639;28;20601;-78
2023/09/08 06:53:08;;;;;;;12.75;9.85;;;;;;;17.68;76.75;101955.25;4907394;28;20129;-77
2023/09/08 06:55:34;;;;;;;12.52;8.63;;;;;;;17.80;76.72;101949.44;4911364;28;20067;-77
2023/09/08 06:58:00;;;;;;;13.93;8.48;;;;;;;17.90;75.61;101958.28;4932845;28;20126;-78
2023/09/08 07:00:26;;;;;;;15.07;9.27;;;;;;;18.00;76.58;101952.72;4906991;28;20152;-77
2023/09/08 07:02:53;;;;;;;12.32;8.48;;;;;;;18.12;75.18;101952.31;4913864;28;20169;-76
2023/09/08 07:05:19;;;;;;;14.40;9.00;;;;;;;18.23;75.31;101955.69;4930243;28;20042;-78
2023/09/08 07:07:44;;;;;;;12.15;8.27;;;;;;;18.36;74.97;101938.72;4907857;28;20039;-76
2023/09/08 07:10:11;;;;;;;11.68;8.57;;;;;;;18.47;73.66;101947.50;4929602;28;20416;-79
2023/09/08 07:12:36;;;;;;;12.75;9.43;;;;;;;18.59;74.26;101956.00;4920626;28;20090;-78
2023/09/08 07:15:02;;;;;;;11.90;9.02;;;;;;;18.64;74.15;101950.50;4920214;28;20036;-79
2023/09/08 07:17:28;;;;;;;10.63;8.80;;;;;;;18.72;74.08;101951.78;4917573;28;20154;-77
2023/09/08 07:19:54;;;;;;;10.77;7.90;;;;;;;18.79;73.92;101947.56;4914438;28;20765;-78
2023/09/08 07:22:20;;;;;;;10.60;8.35;;;;;;;18.90;73.77;101945.50;4907095;28;20032;-76
2023/09/08 07:24:46;;;;;;;14.80;9.10;;;;;;;19.01;72.44;101954.28;4892373;28;20070;-77
2023/09/08 07:27:14;;;;;;;12.65;8.57;;;;;;;19.08;72.45;101949.28;4912499;28;20152;-76
2023/09/08 07:29:41;;;;;;;11.68;8.40;;;;;;;19.11;71.97;101945.97;4922211;28;20097;-77
2023/09/08 07:32:07;;;;;;;9.30;7.63;;;;;;;19.21;72.99;101944.97;4923374;28;20036;-76
2023/09/08 07:34:33;;;;;;;9.70;7.90;;;;;;;19.31;73.09;101945.63;4918069;28;20101;-78
2023/09/08 07:37:00;;;;;;;10.32;8.82;;;;;;;19.40;72.23;101939.50;4908062;28;20044;-77
2023/09/08 07:39:26;;;;;;;9.57;7.32;;;;;;;19.46;72.57;101939.09;4913559;28;20559;-78
2023/09/08 07:41:53;;;;;;;11.02;7.43;;;;;;;19.55;72.48;101944.63;4918836;28;20370;-79
2023/09/08 07:44:19;;;;;;;9.65;7.43;;;;;;;19.66;71.89;101948.81;4918259;28;20050;-79
2023/09/08 07:46:48;;;;;;;11.93;7.18;;;;;;;19.71;70.84;101943.28;4907192;28;20031;-76
2023/09/08 07:49:15;;;;;;;9.63;8.32;;;;;;;19.77;70.86;101939.31;4926333;28;20198;-78
2023/09/08 07:51:40;;;;;;;10.00;8.50;;;;;;;19.81;69.76;101940.34;4911647;28;20035;-77
2023/09/08 07:54:06;;;;;;;11.48;8.98;;;;;;;19.80;69.40;101944.16;4895332;28;20398;-78
2023/09/08 07:56:32;;;;;;;9.65;7.63;;;;;;;19.88;69.80;101935.31;4912374;28;20036;-78
2023/09/08 07:58:58;;;;;;;11.43;8.45;;;;;;;20.01;70.02;101941.03;4920919;28;20074;-77
2023/09/08 08:01:24;;;;;;;10.10;7.72;;;;;;;20.16;70.21;101927.09;4929542;28;20481;-77
2023/09/08 08:03:49;;;;;;;10.90;8.40;;;;;;;20.28;69.79;101930.09;4920511;28;20457;-77
2023/09/08 08:06:15;;;;;;;12.57;8.52;;;;;;;20.32;68.41;101922.94;4922512;28;20038;-77
2023/09/08 08:08:41;;;;;;;9.80;7.72;;;;;;;20.43;68.40;101928.94;4903152;28;20399;-78
2023/09/08 08:11:14;;;;;;;10.45;8.23;;;;;;;20.50;68.56;101923.09;4918704;28;20075;-78
2023/09/08 08:13:41;;;;;;;11.32;8.38;;;;;;;20.53;68.76;101919.78;4894943;28;20036;-78
2023/09/08 08:16:07;;;;;;;8.27;7.40;;;;;;;20.59;68.10;101921.25;4923730;28;20036;-78
2023/09/08 08:18:33;;;;;;;10.57;7.35;;;;;;;20.67;67.91;101924.06;4925610;28;20056;-79
2023/09/08 08:21:00;;;;;;;14.20;8.48;;;;;;;20.72;67.09;101925.84;4926072;28;20042;-80
2023/09/08 08:23:26;;;;;;;9.65;8.30;;;;;;;20.73;66.34;101927.47;4924602;28;20048;-77
2023/09/08 08:25:51;;;;;;;8.38;7.57;;;;;;;20.73;67.57;101922.03;4927103;28;20039;-78
2023/09/08 08:28:17;;;;;;;9.98;8.00;;;;;;;20.84;66.87;101930.72;4918734;28;20046;-76
2023/09/08 08:30:43;;;;;;;9.82;7.45;;;;;;;20.88;67.56;101940.69;4893724;28;20129;-77
2023/09/08 08:33:08;;;;;;;13.82;8.30;;;;;;;20.95;65.69;101932.91;4916571;28;21575;-77
2023/09/08 08:35:35;;;;;;;9.35;7.55;;;;;;;21.01;65.74;101928.13;4922281;28;20032;-77
2023/09/08 08:38:01;;;;;;;8.38;6.30;;;;;;;21.09;65.95;101932.81;4909542;28;20421;-78
2023/09/08 08:40:28;;;;;;;9.52;7.90;;;;;;;21.20;65.30;101931.44;4901636;28;20032;-78
2023/09/08 08:42:57;;;;;;;7.60;6.82;;;;;;;21.30;65.39;101930.38;4944931;28;20122;-78
2023/09/08 08:45:25;;;;;;;9.52;7.30;;;;;;;21.44;66.00;101936.53;4907295;28;20524;-77
2023/09/08 08:47:52;;;;;;;8.88;6.93;;;;;;;21.53;65.01;101923.75;4915541;28;20058;-77
2023/09/08 08:50:18;;;;;;;8.93;7.18;;;;;;;21.64;64.25;101931.66;4938719;28;20035;-80
2023/09/08 08:52:44;;;;;;;9.50;7.22;;;;;;;21.70;63.88;101922.22;4924699;28;20054;-77
2023/09/08 08:55:10;;;;;;;8.23;7.00;;;;;;;21.84;64.25;101922.88;4925289;28;20401;-78
2023/09/08 08:57:39;;;;;;;11.80;8.23;;;;;;;21.90;62.66;101916.16;4909412;28;20047;-77
2023/09/08 09:00:11;;;;;;;10.65;7.93;;;;;;;22.00;63.11;101918.59;4924268;28;20065;-76
2023/09/08 09:02:42;;;;;;;9.07;7.22;;;;;;;22.06;63.37;101920.03;4909025;28;20043;-77
2023/09/08 09:05:14;;;;;;;7.93;6.97;;;;;;;22.19;65.15;101917.53;4906805;28;20093;-77
2023/09/08 09:07:45;;;;;;;8.73;7.00;;;;;;;22.32;63.67;101924.75;4928916;28;20424;-76
2023/09/08 09:10:10;;;;;;;8.27;7.40;;;;;;;22.40;64.01;101918.50;4923759;28;20074;-76
2023/09/08 09:12:38;;;;;;;7.65;6.65;;;;;;;22.49;63.36;101915.75;4907130;28;20623;-76
2023/09/08 09:15:04;;;;;;;8.80;7.55;;;;;;;22.55;62.30;101911.72;4925867;28;20040;-78
2023/09/08 09:17:33;;;;;;;9.70;8.15;;;;;;;22.63;62.38;101921.88;4910719;28;20071;-78
2023/09/08 09:20:12;;;;;;;11.38;6.88;;;;;;;22.65;62.17;101908.69;4912977;28;20048;-77
2023/09/08 09:22:39;;;;;;;7.82;7.00;;;;;;;22.75;62.41;101910.28;4904363;28;20082;-76
2023/09/08 09:25:07;;;;;;;8.32;7.43;;;;;;;22.80;60.67;101921.03;4893021;28;20508;-75
2023/09/08 09:27:38;;;;;;;11.05;7.40;;;;;;;22.88;62.74;101909.31;4925320;28;20059;-77
2023/09/08 09:30:05;;;;;;;7.70;6.80;;;;;;;22.98;61.49;101916.38;4903851;28;20058;-76
2023/09/08 09:32:37;;;;;;;8.88;6.95;;;;;;;23.02;61.62;101912.66;4903511;28;20198;-77
2023/09/08 09:35:04;;;;;;;9.63;7.05;;;;;;;23.08;60.82;101908.63;4910691;28;20039;-77
2023/09/08 09:37:30;;;;;;;8.50;7.55;;;;;;;23.18;61.02;101914.88;4915020;28;20051;-75
2023/09/08 09:39:55;;;;;;;9.20;7.70;;;;;;;23.20;60.41;101913.41;4923211;28;20059;-76
2023/09/08 09:42:21;;;;;;;9.55;7.93;;;;;;;23.27;60.02;101907.44;4903203;28;20052;-75
2023/09/08 09:44:48;;;;;;;9.38;7.45;;;;;;;23.32;60.45;101910.81;4900254;28;20032;-76
2023/09/08 09:47:15;;;;;;;10.07;7.25;;;;;;;23.41;61.23;101908.03;4919514;28;20043;-76
2023/09/08 09:49:45;;;;;;;10.00;6.78;;;;;;;23.48;59.33;101908.31;5005822;28;20040;-76
2023/09/08 09:52:15;;;;;;;11.80;7.63;;;;;;;23.53;59.88;101905.41;4922791;28;20071;-79
2023/09/08 09:54:42;;;;;;;8.48;6.57;;;;;;;23.61;59.53;101912.78;4905790;28;20032;-77
2023/09/08 09:57:13;;;;;;;8.68;7.72;;;;;;;23.67;60.01;101894.25;4913701;28;20047;-76
2023/09/08 09:59:41;;;;;;;8.30;7.47;;;;;;;23.77;60.15;101898.53;4914895;28;20039;-75
2023/09/08 10:02:12;;;;;;;8.05;7.25;;;;;;;23.82;59.55;101898.34;4917883;28;20151;-76
2023/09/08 10:04:40;;;;;;;9.30;7.20;;;;;;;23.89;60.27;101884.94;4927345;28;20039;-77
2023/09/08 10:07:06;;;;;;;9.73;6.47;;;;;;;24.03;60.81;101880.00;4916008;28;20039;-75
2023/09/08 10:09:32;;;;;;;10.55;7.15;;;;;;;24.12;58.53;101883.50;4922036;28;20047;-77
2023/09/08 10:12:03;;;;;;;8.13;6.45;;;;;;;24.22;59.99;101872.13;4903485;28;20537;-76
2023/09/08 10:14:31;;;;;;;7.43;6.20;;;;;;;24.33;59.81;101869.00;4909638;28;20085;-76
2023/09/08 10:17:00;;;;;;;10.32;7.45;;;;;;;24.47;59.69;101872.28;4911547;28;20043;-74
2023/09/08 10:19:27;;;;;;;9.70;6.57;;;;;;;24.56;59.47;101870.25;4917835;28;20051;-77
2023/09/08 10:21:57;;;;;;;7.85;6.20;;;;;;;24.65;59.73;101872.88;4917799;28;20044;-75
2023/09/08 10:24:28;;;;;;;8.25;6.35;;;;;;;24.80;58.04;101879.69;4915243;28;20044;-76
2023/09/08 10:27:14;;;;;;;8.05;6.88;;;;;;;24.90;58.08;101885.53;4925409;28;20042;-74
2023/09/08 10:29:40;;;;;;;8.35;6.15;;;;;;;24.96;58.11;101866.94;4927893;28;20067;-75
2023/09/08 10:32:08;;;;;;;8.05;7.05;;;;;;;25.00;57.06;101868.66;4934528;28;20151;-75
2023/09/08 10:34:36;;;;;;;7.15;5.95;;;;;;;25.14;57.67;101862.06;4925182;28;20047;-77
2023/09/08 10:37:02;;;;;;;9.60;7.07;;;;;;;25.26;57.71;101873.81;4923651;28;20039;-74
2023/09/08 10:39:30;;;;;;;7.50;5.75;;;;;;;25.35;58.29;101872.94;4923868;28;20042;-75
2023/09/08 10:42:14;;;;;;;8.77;6.18;;;;;;;25.45;56.14;101873.25;4913874;29;20192;-79
2023/09/08 10:44:40;;;;;;;13.05;6.70;;;;;;;25.45;56.47;101864.25;4915081;28;20067;-75
2023/09/08 10:47:06;;;;;;;8.40;6.25;;;;;;;25.58;56.64;101854.84;4924217;28;20063;-75
2023/09/08 10:49:35;;;;;;;10.93;5.97;;;;;;;25.70;55.04;101870.50;4924727;29;20082;-74
2023/09/08 10:52:11;;;;;;;8.60;7.13;;;;;;;25.83;55.02;101856.44;4970645;28;20065;-76
2023/09/08 10:54:42;;;;;;;8.38;5.80;;;;;;;25.81;54.25;101850.53;4902073;28;20044;-74
2023/09/08 10:57:16;;;;;;;7.85;5.93;;;;;;;25.79;54.70;101844.56;4921309;28;20054;-76
2023/09/08 10:59:51;;;;;;;8.23;5.90;;;;;;;25.96;55.02;101848.19;4924165;28;20075;-75
2023/09/08 11:02:42;;;;;;;7.72;5.97;;;;;;;26.00;54.58;101849.88;4891374;28;20056;-76
2023/09/08 11:05:10;;;;;;;9.23;6.90;;;;;;;26.08;54.13;101848.16;4902915;28;20384;-75
2023/09/08 11:07:37;;;;;;;7.18;5.53;;;;;;;26.13;54.26;101847.88;4925038;28;20043;-76
2023/09/08 11:10:04;;;;;;;8.30;6.53;;;;;;;26.22;53.93;101840.31;4918129;28;20043;-76
2023/09/08 11:12:31;;;;;;;7.57;6.05;;;;;;;26.33;54.36;101837.84;4903956;28;20145;-74
2023/09/08 11:15:00;;;;;;;8.50;6.13;;;;;;;26.50;55.07;101842.28;4920844;28;20031;-75
2023/09/08 11:17:27;;;;;;;9.02;6.63;;;;;;;26.65;53.66;101847.78;4908440;28;20517;-74
2023/09/08 11:19:54;;;;;;;8.85;6.18;;;;;;;26.67;52.32;101844.69;4906663;28;20043;-74
2023/09/08 11:22:24;;;;;;;9.18;5.47;;;;;;;26.70;52.20;101833.00;4929736;28;20041;-75
2023/09/08 11:24:51;;;;;;;6.65;5.97;;;;;;;26.75;52.46;101832.72;4915744;28;20036;-77
2023/09/08 11:27:17;;;;;;;7.30;5.82;;;;;;;26.79;51.84;101835.56;4916459;28;20032;-77
2023/09/08 11:29:47;;;;;;;7.88;5.72;;;;;;;26.87;52.88;101829.09;4903945;28;20233;-74
2023/09/08 11:32:13;;;;;;;8.38;6.30;;;;;;;26.93;51.61;101835.94;4900802;28;20036;-76